sensor_id;sensor_type;location;lat;lon;timestamp;temperature;humidity
12446;DHT22;6287;50.984;7.022;2023-12-20T00:00:17;7.90;99.90
12446;DHT22;6287;50.984;7.022;2023-12-20T00:02:43;7.80;99.90
12446;DHT22;6287;50.984;7.022;2023-12-20T00:05:15;7.80;99.90
12446;DHT22;6287;50.984;7.022;2023-12-20T00:07:43;7.90;99.90
12446;DHT22;6287;50.984;7.022;2023-12-20T00:10:11;7.90;99.90
12446;DHT22;6287;50.984;7.022;2023-12-20T00:12:38;7.90;99.90
12446;DHT22;6287;50.984;7.022;2023-12-20T00:15:06;7.90;99.90
12446;DHT22;6287;50.984;7.022;2023-12-20T00:17:34;7.90;99.90
12446;DHT22;6287;50.984;7.022;2023-12-20T00:20:00;7.90;99.90
12446;DHT22;6287;50.984;7.022;2023-12-20T00:22:25;7.90;99.90
12446;DHT22;6287;50.984;7.022;2023-12-20T00:24:56;7.90;99.90
12446;DHT22;6287;50.984;7.022;2023-12-20T00:27:21;7.90;99.90
12446;DHT22;6287;50.984;7.022;2023-12-20T00:29:49;7.90;99.90
12446;DHT22;6287;50.984;7.022;2023-12-20T00:32:17;7.90;99.90
12446;DHT22;6287;50.984;7.022;2023-12-20T00:34:43;7.90;99.90
12446;DHT22;6287;50.984;7.022;2023-12-20T00:37:09;7.90;99.90
12446;DHT22;6287;50.984;7.022;2023-12-20T00:42:00;7.80;99.90
12446;DHT22;6287;50.984;7.022;2023-12-20T00:44:28;7.80;99.90
12446;DHT22;6287;50.984;7.022;2023-12-20T00:49:20;7.80;99.90
12446;DHT22;6287;50.984;7.022;2023-12-20T00:51:46;7.70;99.90
12446;DHT22;6287;50.984;7.022;2023-12-20T00:56:39;7.70;99.90
12446;DHT22;6287;50.984;7.022;2023-12-20T00:59:04;7.70;99.90
12446;DHT22;6287;50.984;7.022;2023-12-20T01:01:32;7.80;99.90
12446;DHT22;6287;50.984;7.022;2023-12-20T01:04:00;7.70;99.90
12446;DHT22;6287;50.984;7.022;2023-12-20T01:06:26;7.80;99.90
12446;DHT22;6287;50.984;7.022;2023-12-20T01:08:52;7.80;99.90
12446;DHT22;6287;50.984;7.022;2023-12-20T01:11:17;7.80;99.90
12446;DHT22;6287;50.984;7.022;2023-12-20T01:13:48;7.70;99.90
12446;DHT22;6287;50.984;7.022;2023-12-20T01:18:42;7.60;99.90
12446;DHT22;6287;50.984;7.022;2023-12-20T01:21:07;7.50;99.90
12446;DHT22;6287;50.984;7.022;2023-12-20T01:23:35;7.50;99.90
12446;DHT22;6287;50.984;7.022;2023-12-20T01:26:03;7.40;99.90
12446;DHT22;6287;50.984;7.022;2023-12-20T01:28:30;7.40;99.90
12446;DHT22;6287;50.984;7.022;2023-12-20T01:31:01;7.40;99.90
12446;DHT22;6287;50.984;7.022;2023-12-20T01:33:26;7.30;99.90
12446;DHT22;6287;50.984;7.022;2023-12-20T01:35:54;7.30;99.90
12446;DHT22;6287;50.984;7.022;2023-12-20T01:38:22;7.30;99.90
12446;DHT22;6287;50.984;7.022;2023-12-20T01:43:16;7.30;99.90
12446;DHT22;6287;50.984;7.022;2023-12-20T01:45:42;7.30;99.90
12446;DHT22;6287;50.984;7.022;2023-12-20T01:48:08;7.30;99.90
12446;DHT22;6287;50.984;7.022;2023-12-20T01:50:36;7.30;99.90
12446;DHT22;6287;50.984;7.022;2023-12-20T01:53:04;7.30;99.90
12446;DHT22;6287;50.984;7.022;2023-12-20T01:55:35;7.30;99.90
12446;DHT22;6287;50.984;7.022;2023-12-20T01:58:01;7.30;99.90
12446;DHT22;6287;50.984;7.022;2023-12-20T02:00:28;7.30;99.90
12446;DHT22;6287;50.984;7.022;2023-12-20T02:02:56;7.20;99.90
12446;DHT22;6287;50.984;7.022;2023-12-20T02:05:26;7.20;99.90
12446;DHT22;6287;50.984;7.022;2023-12-20T02:07:53;7.10;99.90
12446;DHT22;6287;50.984;7.022;2023-12-20T02:10:19;7.10;99.90
12446;DHT22;6287;50.984;7.022;2023-12-20T02:15:15;6.90;99.90
12446;DHT22;6287;50.984;7.022;2023-12-20T02:17:44;6.90;99.90
12446;DHT22;6287;50.984;7.022;2023-12-20T02:20:10;6.70;99.90
12446;DHT22;6287;50.984;7.022;2023-12-20T02:22:36;6.70;99.90
12446;DHT22;6287;50.984;7.022;2023-12-20T02:25:02;6.70;99.90
12446;DHT22;6287;50.984;7.022;2023-12-20T02:27:28;6.60;99.90
12446;DHT22;6287;50.984;7.022;2023-12-20T02:29:54;6.60;99.90
12446;DHT22;6287;50.984;7.022;2023-12-20T02:32:23;6.50;99.90
12446;DHT22;6287;50.984;7.022;2023-12-20T02:34:51;6.50;99.90
12446;DHT22;6287;50.984;7.022;2023-12-20T02:37:17;6.40;99.90
12446;DHT22;6287;50.984;7.022;2023-12-20T02:39:42;6.30;99.90
12446;DHT22;6287;50.984;7.022;2023-12-20T02:42:11;6.30;99.90
12446;DHT22;6287;50.984;7.022;2023-12-20T02:44:37;6.30;99.90
12446;DHT22;6287;50.984;7.022;2023-12-20T02:47:07;6.20;99.90
12446;DHT22;6287;50.984;7.022;2023-12-20T02:49:35;6.20;99.90
12446;DHT22;6287;50.984;7.022;2023-12-20T02:54:26;6.20;99.90
12446;DHT22;6287;50.984;7.022;2023-12-20T02:56:52;6.20;99.90
12446;DHT22;6287;50.984;7.022;2023-12-20T02:59:17;6.20;99.90
12446;DHT22;6287;50.984;7.022;2023-12-20T03:01:46;6.30;99.90
12446;DHT22;6287;50.984;7.022;2023-12-20T03:04:12;6.30;99.90
12446;DHT22;6287;50.984;7.022;2023-12-20T03:06:40;6.20;99.90
12446;DHT22;6287;50.984;7.022;2023-12-20T03:11:31;6.30;99.90
12446;DHT22;6287;50.984;7.022;2023-12-20T03:13:59;6.30;99.90
12446;DHT22;6287;50.984;7.022;2023-12-20T03:16:27;6.30;99.90
12446;DHT22;6287;50.984;7.022;2023-12-20T03:18:53;6.30;99.90
12446;DHT22;6287;50.984;7.022;2023-12-20T03:21:19;6.30;99.90
12446;DHT22;6287;50.984;7.022;2023-12-20T03:23:45;6.30;99.90
12446;DHT22;6287;50.984;7.022;2023-12-20T03:26:11;6.30;99.90
12446;DHT22;6287;50.984;7.022;2023-12-20T03:28:37;6.40;99.90
12446;DHT22;6287;50.984;7.022;2023-12-20T03:31:03;6.40;99.90
12446;DHT22;6287;50.984;7.022;2023-12-20T03:33:29;6.30;99.90
12446;DHT22;6287;50.984;7.022;2023-12-20T03:35:54;6.40;99.90
12446;DHT22;6287;50.984;7.022;2023-12-20T03:38:21;6.40;99.90
12446;DHT22;6287;50.984;7.022;2023-12-20T03:40:47;6.40;99.90
12446;DHT22;6287;50.984;7.022;2023-12-20T03:43:15;6.40;99.90
12446;DHT22;6287;50.984;7.022;2023-12-20T03:45:41;6.40;99.90
12446;DHT22;6287;50.984;7.022;2023-12-20T03:48:09;6.40;99.90
12446;DHT22;6287;50.984;7.022;2023-12-20T03:50:37;6.40;99.90
12446;DHT22;6287;50.984;7.022;2023-12-20T03:53:05;6.50;99.90
12446;DHT22;6287;50.984;7.022;2023-12-20T03:55:31;6.40;99.90
12446;DHT22;6287;50.984;7.022;2023-12-20T03:57:59;6.40;99.90
12446;DHT22;6287;50.984;7.022;2023-12-20T04:00:24;6.40;99.90
12446;DHT22;6287;50.984;7.022;2023-12-20T04:02:50;6.50;99.90
12446;DHT22;6287;50.984;7.022;2023-12-20T04:07:44;6.40;99.90
12446;DHT22;6287;50.984;7.022;2023-12-20T04:10:09;6.40;99.90
12446;DHT22;6287;50.984;7.022;2023-12-20T04:12:35;6.40;99.90
12446;DHT22;6287;50.984;7.022;2023-12-20T04:17:29;6.50;99.90
12446;DHT22;6287;50.984;7.022;2023-12-20T04:20:11;6.50;99.90
12446;DHT22;6287;50.984;7.022;2023-12-20T04:22:37;6.50;99.90
12446;DHT22;6287;50.984;7.022;2023-12-20T04:25:02;6.40;99.90
12446;DHT22;6287;50.984;7.022;2023-12-20T04:27:28;6.40;99.90
12446;DHT22;6287;50.984;7.022;2023-12-20T04:29:53;6.40;99.90
12446;DHT22;6287;50.984;7.022;2023-12-20T04:32:19;6.40;99.90
12446;DHT22;6287;50.984;7.022;2023-12-20T04:34:45;6.40;99.90
12446;DHT22;6287;50.984;7.022;2023-12-20T04:37:10;6.90;99.90
12446;DHT22;6287;50.984;7.022;2023-12-20T04:39:36;6.40;99.90
12446;DHT22;6287;50.984;7.022;2023-12-20T04:42:04;6.40;99.90
12446;DHT22;6287;50.984;7.022;2023-12-20T04:44:29;6.40;99.90
12446;DHT22;6287;50.984;7.022;2023-12-20T04:46:57;6.40;99.90
12446;DHT22;6287;50.984;7.022;2023-12-20T04:49:23;6.40;99.90
12446;DHT22;6287;50.984;7.022;2023-12-20T04:51:48;6.40;99.90
12446;DHT22;6287;50.984;7.022;2023-12-20T04:54:14;6.40;99.90
12446;DHT22;6287;50.984;7.022;2023-12-20T04:56:40;6.30;99.90
12446;DHT22;6287;50.984;7.022;2023-12-20T04:59:05;6.30;99.90
12446;DHT22;6287;50.984;7.022;2023-12-20T05:01:33;6.30;99.90
12446;DHT22;6287;50.984;7.022;2023-12-20T05:03:59;6.30;99.90
12446;DHT22;6287;50.984;7.022;2023-12-20T05:06:24;6.20;99.90
12446;DHT22;6287;50.984;7.022;2023-12-20T05:08:50;6.30;99.90
12446;DHT22;6287;50.984;7.022;2023-12-20T05:11:18;6.30;99.90
12446;DHT22;6287;50.984;7.022;2023-12-20T05:13:43;6.30;99.90
12446;DHT22;6287;50.984;7.022;2023-12-20T05:16:09;6.30;99.90
12446;DHT22;6287;50.984;7.022;2023-12-20T05:18:34;6.20;99.90
12446;DHT22;6287;50.984;7.022;2023-12-20T05:21:03;6.20;99.90
12446;DHT22;6287;50.984;7.022;2023-12-20T05:23:28;6.20;99.90
12446;DHT22;6287;50.984;7.022;2023-12-20T05:25:54;6.20;99.90
12446;DHT22;6287;50.984;7.022;2023-12-20T05:30:45;6.10;99.90
12446;DHT22;6287;50.984;7.022;2023-12-20T05:33:11;6.00;99.90
12446;DHT22;6287;50.984;7.022;2023-12-20T05:35:37;6.00;99.90
12446;DHT22;6287;50.984;7.022;2023-12-20T05:38:04;6.00;99.90
12446;DHT22;6287;50.984;7.022;2023-12-20T05:40:32;6.00;99.90
12446;DHT22;6287;50.984;7.022;2023-12-20T05:45:26;5.90;99.90
12446;DHT22;6287;50.984;7.022;2023-12-20T05:47:52;5.90;99.90
12446;DHT22;6287;50.984;7.022;2023-12-20T05:50:22;5.90;99.90
12446;DHT22;6287;50.984;7.022;2023-12-20T05:52:50;5.80;99.90
12446;DHT22;6287;50.984;7.022;2023-12-20T05:55:16;5.80;99.90
12446;DHT22;6287;50.984;7.022;2023-12-20T05:57:44;5.80;99.90
12446;DHT22;6287;50.984;7.022;2023-12-20T06:00:10;5.80;99.90
12446;DHT22;6287;50.984;7.022;2023-12-20T06:02:35;5.80;99.90
12446;DHT22;6287;50.984;7.022;2023-12-20T06:05:05;5.80;99.90
12446;DHT22;6287;50.984;7.022;2023-12-20T06:07:35;5.80;99.90
12446;DHT22;6287;50.984;7.022;2023-12-20T06:10:01;5.80;99.90
12446;DHT22;6287;50.984;7.022;2023-12-20T06:12:26;5.80;99.90
12446;DHT22;6287;50.984;7.022;2023-12-20T06:14:54;5.80;99.90
12446;DHT22;6287;50.984;7.022;2023-12-20T06:17:22;5.90;99.90
12446;DHT22;6287;50.984;7.022;2023-12-20T06:19:47;5.90;99.90
12446;DHT22;6287;50.984;7.022;2023-12-20T06:22:15;5.90;99.90
12446;DHT22;6287;50.984;7.022;2023-12-20T06:24:43;5.90;99.90
12446;DHT22;6287;50.984;7.022;2023-12-20T06:27:08;5.90;99.90
12446;DHT22;6287;50.984;7.022;2023-12-20T06:29:36;5.90;99.90
12446;DHT22;6287;50.984;7.022;2023-12-20T06:32:02;6.00;99.90
12446;DHT22;6287;50.984;7.022;2023-12-20T06:34:30;6.00;99.90
12446;DHT22;6287;50.984;7.022;2023-12-20T06:36:56;6.10;99.90
12446;DHT22;6287;50.984;7.022;2023-12-20T06:39:21;6.10;99.90
12446;DHT22;6287;50.984;7.022;2023-12-20T06:41:47;6.10;99.90
12446;DHT22;6287;50.984;7.022;2023-12-20T06:44:15;6.20;99.90
12446;DHT22;6287;50.984;7.022;2023-12-20T06:46:43;6.20;99.90
12446;DHT22;6287;50.984;7.022;2023-12-20T06:49:09;6.20;99.90
12446;DHT22;6287;50.984;7.022;2023-12-20T06:51:39;6.10;99.90
12446;DHT22;6287;50.984;7.022;2023-12-20T06:54:05;6.30;99.90
12446;DHT22;6287;50.984;7.022;2023-12-20T06:56:30;6.30;99.90
12446;DHT22;6287;50.984;7.022;2023-12-20T06:58:59;6.30;99.90
12446;DHT22;6287;50.984;7.022;2023-12-20T07:01:29;6.30;99.90
12446;DHT22;6287;50.984;7.022;2023-12-20T07:03:55;6.30;99.90
12446;DHT22;6287;50.984;7.022;2023-12-20T07:06:22;6.40;99.90
12446;DHT22;6287;50.984;7.022;2023-12-20T07:08:51;6.30;99.90
12446;DHT22;6287;50.984;7.022;2023-12-20T07:11:17;6.40;99.90
12446;DHT22;6287;50.984;7.022;2023-12-20T07:13:47;6.40;99.90
12446;DHT22;6287;50.984;7.022;2023-12-20T07:16:15;6.40;99.90
12446;DHT22;6287;50.984;7.022;2023-12-20T07:18:41;6.40;99.90
12446;DHT22;6287;50.984;7.022;2023-12-20T07:21:06;6.40;99.90
12446;DHT22;6287;50.984;7.022;2023-12-20T07:23:39;6.40;99.90
12446;DHT22;6287;50.984;7.022;2023-12-20T07:26:04;6.50;99.90
12446;DHT22;6287;50.984;7.022;2023-12-20T07:28:32;6.50;99.90
12446;DHT22;6287;50.984;7.022;2023-12-20T07:30:58;6.40;99.90
12446;DHT22;6287;50.984;7.022;2023-12-20T07:33:28;6.50;99.90
12446;DHT22;6287;50.984;7.022;2023-12-20T07:35:54;6.40;99.90
12446;DHT22;6287;50.984;7.022;2023-12-20T07:38:19;6.50;99.90
12446;DHT22;6287;50.984;7.022;2023-12-20T07:40:45;6.50;99.90
12446;DHT22;6287;50.984;7.022;2023-12-20T07:43:13;6.50;99.90
12446;DHT22;6287;50.984;7.022;2023-12-20T07:45:41;6.50;99.90
12446;DHT22;6287;50.984;7.022;2023-12-20T07:48:07;6.60;99.90
12446;DHT22;6287;50.984;7.022;2023-12-20T07:50:35;6.60;99.90
12446;DHT22;6287;50.984;7.022;2023-12-20T07:53:03;6.60;99.90
12446;DHT22;6287;50.984;7.022;2023-12-20T07:55:29;6.60;99.90
12446;DHT22;6287;50.984;7.022;2023-12-20T07:57:55;6.60;99.90
12446;DHT22;6287;50.984;7.022;2023-12-20T08:00:21;6.60;99.90
12446;DHT22;6287;50.984;7.022;2023-12-20T08:02:46;6.60;99.90
12446;DHT22;6287;50.984;7.022;2023-12-20T08:05:12;6.60;99.90
12446;DHT22;6287;50.984;7.022;2023-12-20T08:07:38;6.60;99.90
12446;DHT22;6287;50.984;7.022;2023-12-20T08:10:09;6.60;99.90
12446;DHT22;6287;50.984;7.022;2023-12-20T08:12:35;6.60;99.90
12446;DHT22;6287;50.984;7.022;2023-12-20T08:15:01;6.60;99.90
12446;DHT22;6287;50.984;7.022;2023-12-20T08:17:29;6.60;99.90
12446;DHT22;6287;50.984;7.022;2023-12-20T08:19:55;6.60;99.90
12446;DHT22;6287;50.984;7.022;2023-12-20T08:22:21;6.60;99.90
12446;DHT22;6287;50.984;7.022;2023-12-20T08:24:49;6.70;99.90
12446;DHT22;6287;50.984;7.022;2023-12-20T08:27:19;6.60;99.90
12446;DHT22;6287;50.984;7.022;2023-12-20T08:29:44;6.70;99.90
12446;DHT22;6287;50.984;7.022;2023-12-20T08:32:15;6.70;99.90
12446;DHT22;6287;50.984;7.022;2023-12-20T08:34:42;6.70;99.90
12446;DHT22;6287;50.984;7.022;2023-12-20T08:37:10;6.70;99.90
12446;DHT22;6287;50.984;7.022;2023-12-20T08:39:36;6.70;99.90
12446;DHT22;6287;50.984;7.022;2023-12-20T08:42:04;6.70;99.90
12446;DHT22;6287;50.984;7.022;2023-12-20T08:44:29;6.70;99.90
12446;DHT22;6287;50.984;7.022;2023-12-20T08:46:55;6.70;99.90
12446;DHT22;6287;50.984;7.022;2023-12-20T08:49:25;6.80;99.90
12446;DHT22;6287;50.984;7.022;2023-12-20T08:51:51;6.80;99.90
12446;DHT22;6287;50.984;7.022;2023-12-20T08:54:16;6.80;99.90
12446;DHT22;6287;50.984;7.022;2023-12-20T08:56:45;6.80;99.90
12446;DHT22;6287;50.984;7.022;2023-12-20T08:59:11;6.80;99.90
12446;DHT22;6287;50.984;7.022;2023-12-20T09:01:37;6.80;99.90
12446;DHT22;6287;50.984;7.022;2023-12-20T09:04:03;6.80;99.90
12446;DHT22;6287;50.984;7.022;2023-12-20T09:06:31;6.80;99.90
12446;DHT22;6287;50.984;7.022;2023-12-20T09:08:56;6.80;99.90
12446;DHT22;6287;50.984;7.022;2023-12-20T09:11:22;6.80;99.90
12446;DHT22;6287;50.984;7.022;2023-12-20T09:13:47;6.80;99.90
12446;DHT22;6287;50.984;7.022;2023-12-20T09:16:13;6.80;99.90
12446;DHT22;6287;50.984;7.022;2023-12-20T09:18:41;6.70;99.90
12446;DHT22;6287;50.984;7.022;2023-12-20T09:21:06;6.80;99.90
12446;DHT22;6287;50.984;7.022;2023-12-20T09:23:34;6.80;99.90
12446;DHT22;6287;50.984;7.022;2023-12-20T09:26:04;6.80;99.90
12446;DHT22;6287;50.984;7.022;2023-12-20T09:31:00;6.80;99.90
12446;DHT22;6287;50.984;7.022;2023-12-20T09:33:26;6.80;99.90
12446;DHT22;6287;50.984;7.022;2023-12-20T09:38:17;6.90;99.90
12446;DHT22;6287;50.984;7.022;2023-12-20T09:40:43;6.90;99.90
12446;DHT22;6287;50.984;7.022;2023-12-20T09:43:11;6.90;99.90
12446;DHT22;6287;50.984;7.022;2023-12-20T09:48:10;6.90;99.90
12446;DHT22;6287;50.984;7.022;2023-12-20T09:50:40;7.00;99.90
12446;DHT22;6287;50.984;7.022;2023-12-20T09:53:08;7.00;99.90
12446;DHT22;6287;50.984;7.022;2023-12-20T09:55:36;7.10;99.90
12446;DHT22;6287;50.984;7.022;2023-12-20T09:58:06;7.10;99.90
12446;DHT22;6287;50.984;7.022;2023-12-20T10:00:37;7.10;99.90
12446;DHT22;6287;50.984;7.022;2023-12-20T10:03:03;7.10;99.90
12446;DHT22;6287;50.984;7.022;2023-12-20T10:05:34;7.10;99.90
12446;DHT22;6287;50.984;7.022;2023-12-20T10:08:00;7.10;99.90
12446;DHT22;6287;50.984;7.022;2023-12-20T10:10:28;7.00;99.90
12446;DHT22;6287;50.984;7.022;2023-12-20T10:13:06;7.00;99.90
12446;DHT22;6287;50.984;7.022;2023-12-20T10:15:34;7.00;99.90
12446;DHT22;6287;50.984;7.022;2023-12-20T10:18:03;7.10;99.90
12446;DHT22;6287;50.984;7.022;2023-12-20T10:20:31;7.10;99.90
12446;DHT22;6287;50.984;7.022;2023-12-20T10:23:00;7.10;99.90
12446;DHT22;6287;50.984;7.022;2023-12-20T10:25:28;7.10;99.90
12446;DHT22;6287;50.984;7.022;2023-12-20T10:28:13;7.10;99.90
12446;DHT22;6287;50.984;7.022;2023-12-20T10:30:40;7.20;99.90
12446;DHT22;6287;50.984;7.022;2023-12-20T10:33:07;7.00;99.90
12446;DHT22;6287;50.984;7.022;2023-12-20T10:36:00;7.10;99.90
12446;DHT22;6287;50.984;7.022;2023-12-20T10:38:26;7.50;99.90
12446;DHT22;6287;50.984;7.022;2023-12-20T10:40:57;7.20;99.90
12446;DHT22;6287;50.984;7.022;2023-12-20T10:43:28;7.20;99.90
12446;DHT22;6287;50.984;7.022;2023-12-20T10:45:57;7.20;99.90
12446;DHT22;6287;50.984;7.022;2023-12-20T10:48:22;7.20;99.90
12446;DHT22;6287;50.984;7.022;2023-12-20T10:50:55;7.20;99.90
12446;DHT22;6287;50.984;7.022;2023-12-20T10:53:24;7.20;99.90
12446;DHT22;6287;50.984;7.022;2023-12-20T10:55:52;7.20;99.90
12446;DHT22;6287;50.984;7.022;2023-12-20T10:58:23;7.20;99.90
12446;DHT22;6287;50.984;7.022;2023-12-20T11:00:54;7.20;99.90
12446;DHT22;6287;50.984;7.022;2023-12-20T11:03:27;7.20;99.90
12446;DHT22;6287;50.984;7.022;2023-12-20T11:06:17;7.20;99.90
12446;DHT22;6287;50.984;7.022;2023-12-20T11:12:21;7.20;99.90
12446;DHT22;6287;50.984;7.022;2023-12-20T11:14:51;7.20;99.90
12446;DHT22;6287;50.984;7.022;2023-12-20T11:17:18;7.20;99.90
12446;DHT22;6287;50.984;7.022;2023-12-20T11:22:33;7.20;99.90
12446;DHT22;6287;50.984;7.022;2023-12-20T11:25:08;7.20;99.90
12446;DHT22;6287;50.984;7.022;2023-12-20T11:27:43;7.20;99.90
12446;DHT22;6287;50.984;7.022;2023-12-20T11:30:10;7.20;99.90
12446;DHT22;6287;50.984;7.022;2023-12-20T11:32:40;7.20;99.90
12446;DHT22;6287;50.984;7.022;2023-12-20T11:37:38;7.30;99.90
12446;DHT22;6287;50.984;7.022;2023-12-20T11:40:15;7.30;99.90
12446;DHT22;6287;50.984;7.022;2023-12-20T11:42:45;7.30;99.90
12446;DHT22;6287;50.984;7.022;2023-12-20T11:45:13;7.40;99.90
12446;DHT22;6287;50.984;7.022;2023-12-20T11:47:47;7.40;99.90
12446;DHT22;6287;50.984;7.022;2023-12-20T11:50:15;7.50;99.90
12446;DHT22;6287;50.984;7.022;2023-12-20T11:52:44;7.50;99.90
12446;DHT22;6287;50.984;7.022;2023-12-20T11:55:14;7.50;99.90
12446;DHT22;6287;50.984;7.022;2023-12-20T11:57:40;7.50;99.90
12446;DHT22;6287;50.984;7.022;2023-12-20T12:00:08;7.40;99.90
12446;DHT22;6287;50.984;7.022;2023-12-20T12:02:35;7.50;99.90
12446;DHT22;6287;50.984;7.022;2023-12-20T12:05:00;7.50;99.90
12446;DHT22;6287;50.984;7.022;2023-12-20T12:07:26;7.50;99.90
12446;DHT22;6287;50.984;7.022;2023-12-20T12:09:52;7.50;99.90
12446;DHT22;6287;50.984;7.022;2023-12-20T12:12:18;7.40;99.90
12446;DHT22;6287;50.984;7.022;2023-12-20T12:14:45;7.40;99.90
12446;DHT22;6287;50.984;7.022;2023-12-20T12:17:13;7.40;99.90
12446;DHT22;6287;50.984;7.022;2023-12-20T12:19:43;7.40;99.90
12446;DHT22;6287;50.984;7.022;2023-12-20T12:22:12;7.40;99.90
12446;DHT22;6287;50.984;7.022;2023-12-20T12:24:43;7.40;99.90
12446;DHT22;6287;50.984;7.022;2023-12-20T12:27:10;7.40;99.90
12446;DHT22;6287;50.984;7.022;2023-12-20T12:29:39;7.40;99.90
12446;DHT22;6287;50.984;7.022;2023-12-20T12:32:09;7.40;99.90
12446;DHT22;6287;50.984;7.022;2023-12-20T12:34:35;7.40;99.90
12446;DHT22;6287;50.984;7.022;2023-12-20T12:37:03;7.40;99.90
12446;DHT22;6287;50.984;7.022;2023-12-20T12:39:34;7.40;99.90
12446;DHT22;6287;50.984;7.022;2023-12-20T12:44:29;7.40;99.90
12446;DHT22;6287;50.984;7.022;2023-12-20T12:46:54;7.40;99.90
12446;DHT22;6287;50.984;7.022;2023-12-20T12:49:20;7.40;99.90
12446;DHT22;6287;50.984;7.022;2023-12-20T12:51:49;7.40;99.90
12446;DHT22;6287;50.984;7.022;2023-12-20T12:54:15;7.40;99.90
12446;DHT22;6287;50.984;7.022;2023-12-20T12:56:42;7.40;99.90
12446;DHT22;6287;50.984;7.022;2023-12-20T12:59:08;7.40;99.90
12446;DHT22;6287;50.984;7.022;2023-12-20T13:01:34;7.40;99.90
12446;DHT22;6287;50.984;7.022;2023-12-20T13:04:00;7.40;99.90
12446;DHT22;6287;50.984;7.022;2023-12-20T13:06:28;7.50;99.90
12446;DHT22;6287;50.984;7.022;2023-12-20T13:08:54;7.50;99.90
12446;DHT22;6287;50.984;7.022;2023-12-20T13:11:25;7.50;99.90
12446;DHT22;6287;50.984;7.022;2023-12-20T13:13:53;7.50;99.90
12446;DHT22;6287;50.984;7.022;2023-12-20T13:16:21;7.50;99.90
12446;DHT22;6287;50.984;7.022;2023-12-20T13:18:49;7.50;99.90
12446;DHT22;6287;50.984;7.022;2023-12-20T13:21:17;7.60;99.90
12446;DHT22;6287;50.984;7.022;2023-12-20T13:23:42;7.70;99.90
12446;DHT22;6287;50.984;7.022;2023-12-20T13:28:36;7.80;99.90
12446;DHT22;6287;50.984;7.022;2023-12-20T13:31:04;7.80;99.90
12446;DHT22;6287;50.984;7.022;2023-12-20T13:33:33;7.80;99.90
12446;DHT22;6287;50.984;7.022;2023-12-20T13:35:58;7.80;99.90
12446;DHT22;6287;50.984;7.022;2023-12-20T13:38:29;7.80;99.90
12446;DHT22;6287;50.984;7.022;2023-12-20T13:40:54;7.70;99.90
12446;DHT22;6287;50.984;7.022;2023-12-20T13:43:23;7.80;99.90
12446;DHT22;6287;50.984;7.022;2023-12-20T13:45:50;7.80;99.90
12446;DHT22;6287;50.984;7.022;2023-12-20T13:48:20;7.70;99.90
12446;DHT22;6287;50.984;7.022;2023-12-20T13:50:46;7.80;99.90
12446;DHT22;6287;50.984;7.022;2023-12-20T13:53:16;7.70;99.90
12446;DHT22;6287;50.984;7.022;2023-12-20T13:55:41;7.70;99.90
12446;DHT22;6287;50.984;7.022;2023-12-20T13:58:09;7.70;99.90
12446;DHT22;6287;50.984;7.022;2023-12-20T14:00:40;7.70;99.90
12446;DHT22;6287;50.984;7.022;2023-12-20T14:03:06;7.70;99.90
12446;DHT22;6287;50.984;7.022;2023-12-20T14:05:35;7.70;99.90
12446;DHT22;6287;50.984;7.022;2023-12-20T14:08:03;7.70;99.90
12446;DHT22;6287;50.984;7.022;2023-12-20T14:10:29;7.60;99.90
12446;DHT22;6287;50.984;7.022;2023-12-20T14:12:55;7.70;99.90
12446;DHT22;6287;50.984;7.022;2023-12-20T14:15:21;7.60;99.90
12446;DHT22;6287;50.984;7.022;2023-12-20T14:17:46;7.70;99.90
12446;DHT22;6287;50.984;7.022;2023-12-20T14:20:12;7.60;99.90
12446;DHT22;6287;50.984;7.022;2023-12-20T14:22:41;7.60;99.90
12446;DHT22;6287;50.984;7.022;2023-12-20T14:25:14;7.60;99.90
12446;DHT22;6287;50.984;7.022;2023-12-20T14:27:44;7.50;99.90
12446;DHT22;6287;50.984;7.022;2023-12-20T14:30:14;7.60;99.90
12446;DHT22;6287;50.984;7.022;2023-12-20T14:32:42;7.60;99.90
12446;DHT22;6287;50.984;7.022;2023-12-20T14:35:10;7.60;99.90
12446;DHT22;6287;50.984;7.022;2023-12-20T14:37:38;7.60;99.90
12446;DHT22;6287;50.984;7.022;2023-12-20T14:40:06;7.70;99.90
12446;DHT22;6287;50.984;7.022;2023-12-20T14:42:35;7.60;99.90
12446;DHT22;6287;50.984;7.022;2023-12-20T14:45:01;7.90;99.90
12446;DHT22;6287;50.984;7.022;2023-12-20T14:47:29;7.70;99.90
12446;DHT22;6287;50.984;7.022;2023-12-20T14:49:55;7.80;99.90
12446;DHT22;6287;50.984;7.022;2023-12-20T14:52:24;7.70;99.90
12446;DHT22;6287;50.984;7.022;2023-12-20T14:54:50;7.90;99.90
12446;DHT22;6287;50.984;7.022;2023-12-20T14:57:15;7.90;99.90
12446;DHT22;6287;50.984;7.022;2023-12-20T14:59:41;7.90;99.90
12446;DHT22;6287;50.984;7.022;2023-12-20T15:02:09;7.90;99.90
12446;DHT22;6287;50.984;7.022;2023-12-20T15:04:37;7.90;99.90
12446;DHT22;6287;50.984;7.022;2023-12-20T15:07:02;7.90;99.90
12446;DHT22;6287;50.984;7.022;2023-12-20T15:09:33;7.90;99.90
12446;DHT22;6287;50.984;7.022;2023-12-20T15:11:58;7.90;99.90
12446;DHT22;6287;50.984;7.022;2023-12-20T15:14:24;7.90;99.90
12446;DHT22;6287;50.984;7.022;2023-12-20T15:16:49;7.90;99.90
12446;DHT22;6287;50.984;7.022;2023-12-20T15:19:15;7.90;99.90
12446;DHT22;6287;50.984;7.022;2023-12-20T15:21:41;7.90;99.90
12446;DHT22;6287;50.984;7.022;2023-12-20T15:24:10;7.90;99.90
12446;DHT22;6287;50.984;7.022;2023-12-20T15:26:46;7.90;99.90
12446;DHT22;6287;50.984;7.022;2023-12-20T15:29:14;7.90;99.90
12446;DHT22;6287;50.984;7.022;2023-12-20T15:31:46;7.90;99.90
12446;DHT22;6287;50.984;7.022;2023-12-20T15:34:15;7.90;99.90
12446;DHT22;6287;50.984;7.022;2023-12-20T15:36:45;7.90;99.90
12446;DHT22;6287;50.984;7.022;2023-12-20T15:39:11;7.90;99.90
12446;DHT22;6287;50.984;7.022;2023-12-20T15:41:42;7.90;99.90
12446;DHT22;6287;50.984;7.022;2023-12-20T15:44:08;7.90;99.90
12446;DHT22;6287;50.984;7.022;2023-12-20T15:46:33;7.90;99.90
12446;DHT22;6287;50.984;7.022;2023-12-20T15:48:59;7.90;99.90
12446;DHT22;6287;50.984;7.022;2023-12-20T15:51:24;7.80;99.90
12446;DHT22;6287;50.984;7.022;2023-12-20T15:53:52;7.80;99.90
12446;DHT22;6287;50.984;7.022;2023-12-20T15:56:18;7.90;99.90
12446;DHT22;6287;50.984;7.022;2023-12-20T15:58:46;7.80;99.90
12446;DHT22;6287;50.984;7.022;2023-12-20T16:01:19;7.80;99.90
12446;DHT22;6287;50.984;7.022;2023-12-20T16:03:45;7.80;99.90
12446;DHT22;6287;50.984;7.022;2023-12-20T16:06:13;7.90;99.90
12446;DHT22;6287;50.984;7.022;2023-12-20T16:08:38;7.80;99.90
12446;DHT22;6287;50.984;7.022;2023-12-20T16:11:09;7.90;99.90
12446;DHT22;6287;50.984;7.022;2023-12-20T16:13:34;7.90;99.90
12446;DHT22;6287;50.984;7.022;2023-12-20T16:16:05;7.90;99.90
12446;DHT22;6287;50.984;7.022;2023-12-20T16:18:36;7.80;99.90
12446;DHT22;6287;50.984;7.022;2023-12-20T16:21:08;7.80;99.90
12446;DHT22;6287;50.984;7.022;2023-12-20T16:23:36;7.80;99.90
12446;DHT22;6287;50.984;7.022;2023-12-20T16:26:04;7.80;99.90
12446;DHT22;6287;50.984;7.022;2023-12-20T16:28:30;7.80;99.90
12446;DHT22;6287;50.984;7.022;2023-12-20T16:30:55;7.80;99.90
12446;DHT22;6287;50.984;7.022;2023-12-20T16:33:21;7.80;99.90
12446;DHT22;6287;50.984;7.022;2023-12-20T16:35:48;7.80;99.90
12446;DHT22;6287;50.984;7.022;2023-12-20T16:38:13;7.70;99.90
12446;DHT22;6287;50.984;7.022;2023-12-20T16:40:41;7.70;99.90
12446;DHT22;6287;50.984;7.022;2023-12-20T16:43:12;7.70;99.90
12446;DHT22;6287;50.984;7.022;2023-12-20T16:48:09;7.80;99.90
12446;DHT22;6287;50.984;7.022;2023-12-20T16:50:37;7.80;99.90
12446;DHT22;6287;50.984;7.022;2023-12-20T16:53:05;7.70;99.90
12446;DHT22;6287;50.984;7.022;2023-12-20T16:55:35;7.80;99.90